createdAt,value
2018-08-19T00:00:30.652Z,8.40
2018-08-19T00:03:01.815Z,9.33
2018-08-19T00:05:30.448Z,9.70
2018-08-19T00:07:59.068Z,8.63
2018-08-19T00:10:39.023Z,8.23
2018-08-19T00:13:08.836Z,9.10
2018-08-19T00:15:38.119Z,8.77
2018-08-19T00:18:07.974Z,8.37
2018-08-19T00:20:36.572Z,8.77
2018-08-19T00:23:05.221Z,8.10
2018-08-19T00:25:37.723Z,8.63
2018-08-19T00:28:11.930Z,9.33
2018-08-19T00:30:55.165Z,8.53
2018-08-19T00:33:23.723Z,8.80
2018-08-19T00:35:52.275Z,8.50
2018-08-19T00:38:20.846Z,8.20
2018-08-19T00:40:49.428Z,9.33
2018-08-19T00:43:17.986Z,8.47
2018-08-19T00:45:46.519Z,9.00
2018-08-19T00:48:15.115Z,9.13
2018-08-19T00:50:43.676Z,8.77
2018-08-19T00:53:12.508Z,9.13
2018-08-19T00:55:46.319Z,8.70
2018-08-19T00:58:16.259Z,8.83
2018-08-19T01:00:44.822Z,8.30
2018-08-19T01:03:13.579Z,8.97
2018-08-19T01:05:42.166Z,8.50
2018-08-19T01:08:12.098Z,7.90
2018-08-19T01:10:41.096Z,9.03
2018-08-19T01:13:10.368Z,9.00
2018-08-19T01:15:38.946Z,9.53
2018-08-19T01:18:07.508Z,8.20
2018-08-19T01:20:36.087Z,8.83
2018-08-19T01:23:04.654Z,9.23
2018-08-19T01:25:33.183Z,9.07
2018-08-19T01:28:01.732Z,8.87
2018-08-19T01:30:30.303Z,8.57
2018-08-19T01:32:58.846Z,8.57
2018-08-19T01:35:31.618Z,9.93
2018-08-19T01:38:00.250Z,9.47
2018-08-19T01:40:28.783Z,9.87
2018-08-19T01:42:57.527Z,9.43
2018-08-19T01:45:26.102Z,8.93
2018-08-19T01:47:54.678Z,10.00
2018-08-19T01:50:23.272Z,9.97
2018-08-19T01:52:51.887Z,9.13
2018-08-19T01:55:20.470Z,8.87
2018-08-19T01:57:50.243Z,9.63
2018-08-19T02:00:19.338Z,9.57
2018-08-19T02:03:01.743Z,9.47
2018-08-19T02:05:30.300Z,10.53
2018-08-19T02:08:01.386Z,9.17
2018-08-19T02:10:31.427Z,9.20
2018-08-19T02:13:00.274Z,9.50
2018-08-19T02:15:29.872Z,9.23
2018-08-19T02:18:03.062Z,9.93
2018-08-19T02:20:40.613Z,9.53
2018-08-19T02:23:11.542Z,9.90
2018-08-19T02:25:44.101Z,8.93
2018-08-19T02:28:13.277Z,9.00
2018-08-19T02:30:46.868Z,8.90
2018-08-19T02:33:15.438Z,9.33
2018-08-19T02:35:48.070Z,9.37
2018-08-19T02:38:16.644Z,10.40
2018-08-19T02:40:45.219Z,9.17
2018-08-19T02:43:13.774Z,9.80
2018-08-19T02:45:42.338Z,10.00
2018-08-19T02:48:10.874Z,9.20
2018-08-19T02:50:39.456Z,9.93
2018-08-19T02:53:07.975Z,9.30
2018-08-19T02:55:36.507Z,9.80
2018-08-19T02:58:10.338Z,10.00
2018-08-19T03:00:38.892Z,9.87
2018-08-19T03:03:07.439Z,10.13
2018-08-19T03:05:36.743Z,9.73
2018-08-19T03:08:05.394Z,9.90
2018-08-19T03:10:33.946Z,9.97
2018-08-19T03:13:02.530Z,10.37
2018-08-19T03:15:31.144Z,9.97
2018-08-19T03:17:59.678Z,9.90
2018-08-19T03:20:28.239Z,9.73
2018-08-19T03:22:56.771Z,9.57
2018-08-19T03:25:25.339Z,8.90
2018-08-19T03:27:53.950Z,10.30
2018-08-19T03:30:22.536Z,10.30
2018-08-19T03:32:56.435Z,10.27
2018-08-19T03:35:25.116Z,9.57
2018-08-19T03:37:54.531Z,10.07
2018-08-19T03:40:25.743Z,9.90
2018-08-19T03:42:54.743Z,10.10
2018-08-19T03:45:23.331Z,9.47
2018-08-19T03:47:52.931Z,10.13
2018-08-19T03:50:52.217Z,10.17
2018-08-19T03:53:20.790Z,18.67
2018-08-19T03:55:49.350Z,10.73
2018-08-19T03:58:17.892Z,10.50
2018-08-19T04:00:46.443Z,10.53
2018-08-19T04:03:20.695Z,9.93
2018-08-19T04:05:57.754Z,10.00
2018-08-19T04:08:33.287Z,10.53
2018-08-19T04:11:04.938Z,10.87
2018-08-19T04:13:37.589Z,13.70
2018-08-19T04:16:07.390Z,10.73
2018-08-19T04:18:38.166Z,9.53
2018-08-19T04:21:12.254Z,10.37
2018-08-19T04:23:43.144Z,10.97
2018-08-19T04:26:11.704Z,10.80
2018-08-19T04:28:41.464Z,10.33
2018-08-19T04:31:14.335Z,10.03
2018-08-19T04:33:44.354Z,9.67
2018-08-19T04:36:14.770Z,9.80
2018-08-19T04:38:43.391Z,10.47
2018-08-19T04:41:12.430Z,9.70
2018-08-19T04:43:40.983Z,9.60
2018-08-19T04:46:09.557Z,10.20
2018-08-19T04:48:38.092Z,9.83
2018-08-19T04:51:06.655Z,9.77
2018-08-19T04:53:35.619Z,9.73
2018-08-19T04:56:04.199Z,11.80
2018-08-19T04:58:32.763Z,12.90
2018-08-19T05:01:03.208Z,11.73
2018-08-19T05:03:32.412Z,12.47
2018-08-19T05:06:04.018Z,13.00
2018-08-19T05:08:33.472Z,12.57
2018-08-19T05:11:02.235Z,13.10
2018-08-19T05:13:33.946Z,12.70
2018-08-19T05:16:07.007Z,14.50
2018-08-19T05:18:35.591Z,12.87
2018-08-19T05:21:12.352Z,12.83
2018-08-19T05:23:47.471Z,13.77
2018-08-19T05:26:16.022Z,13.57
2018-08-19T05:29:14.211Z,13.97
2018-08-19T05:31:52.136Z,14.17
2018-08-19T05:34:48.319Z,14.93
2018-08-19T05:37:19.415Z,13.80
2018-08-19T05:39:53.160Z,15.37
2018-08-19T05:42:21.734Z,15.13
2018-08-19T05:44:51.766Z,17.90
2018-08-19T05:47:20.506Z,16.33
2018-08-19T05:49:49.596Z,16.70
2018-08-19T05:52:19.933Z,19.10
2018-08-19T05:55:00.374Z,22.90
2018-08-19T05:57:30.286Z,26.30
2018-08-19T05:59:59.240Z,34.03
2018-08-19T06:02:33.736Z,28.17
2018-08-19T06:05:04.110Z,25.70
2018-08-19T06:07:32.721Z,29.47
2018-08-19T06:10:01.410Z,27.93
2018-08-19T06:12:29.971Z,25.90
2018-08-19T06:14:59.055Z,25.33
2018-08-19T06:17:27.658Z,24.80
2018-08-19T06:19:56.225Z,25.17
2018-08-19T06:22:41.087Z,25.50
2018-08-19T06:25:10.662Z,25.13
2018-08-19T06:27:50.039Z,25.37
2018-08-19T06:30:19.621Z,24.37
2018-08-19T06:32:48.239Z,20.47
2018-08-19T06:35:16.894Z,20.93
2018-08-19T06:37:45.519Z,20.77
2018-08-19T06:40:16.166Z,19.23
2018-08-19T06:42:44.910Z,19.67
2018-08-19T06:45:13.858Z,21.50
2018-08-19T06:47:42.443Z,18.73
2018-08-19T06:50:24.332Z,20.73
2018-08-19T06:52:53.478Z,19.47
2018-08-19T06:55:22.132Z,19.03
2018-08-19T06:57:50.724Z,20.50
2018-08-19T07:00:27.224Z,19.30
2018-08-19T07:02:57.541Z,18.70
2018-08-19T07:05:26.101Z,19.93
2018-08-19T07:07:54.682Z,20.63
2018-08-19T07:10:41.127Z,18.17
2018-08-19T07:13:13.931Z,20.50
2018-08-19T07:15:43.566Z,22.53
2018-08-19T07:18:14.091Z,18.93
2018-08-19T07:20:43.443Z,16.37
2018-08-19T07:23:12.472Z,21.30
2018-08-19T07:25:43.255Z,22.97
2018-08-19T07:28:12.932Z,24.87
2018-08-19T07:30:41.979Z,20.00
2018-08-19T07:33:10.827Z,22.23
2018-08-19T07:35:39.420Z,25.30
2018-08-19T07:38:08.019Z,26.43
2018-08-19T07:40:36.583Z,27.37
2018-08-19T07:43:05.333Z,24.90
2018-08-19T07:45:33.913Z,26.57
2018-08-19T07:48:02.476Z,25.50
2018-08-19T07:50:30.995Z,23.47
2018-08-19T07:52:59.520Z,16.03
2018-08-19T07:55:28.095Z,20.00
2018-08-19T07:57:56.663Z,22.00
2018-08-19T08:00:30.649Z,25.10
2018-08-19T08:02:59.223Z,24.00
2018-08-19T08:05:32.842Z,25.53
2018-08-19T08:08:01.396Z,22.83
2018-08-19T08:10:30.120Z,22.63
2018-08-19T08:13:12.265Z,24.03
2018-08-19T08:15:46.136Z,23.57
2018-08-19T08:18:15.060Z,23.50
2018-08-19T08:20:43.702Z,24.47
2018-08-19T08:23:18.883Z,22.20
2018-08-19T08:25:47.590Z,20.93
2018-08-19T08:28:16.194Z,15.03
2018-08-19T08:30:44.777Z,14.27
2018-08-19T08:33:13.347Z,19.87
2018-08-19T08:35:47.227Z,20.27
2018-08-19T08:38:15.792Z,16.93
2018-08-19T08:40:44.406Z,15.93
2018-08-19T08:43:12.896Z,14.93
2018-08-19T08:45:42.599Z,14.53
2018-08-19T08:48:11.808Z,13.23
2018-08-19T08:50:40.564Z,14.03
2018-08-19T08:53:09.167Z,13.27
2018-08-19T08:55:37.722Z,12.37
2018-08-19T08:58:06.314Z,14.10
2018-08-19T09:00:34.879Z,14.73
2018-08-19T09:03:03.447Z,11.77
2018-08-19T09:05:33.156Z,13.80
2018-08-19T09:08:01.731Z,13.63
2018-08-19T09:10:30.302Z,13.27
2018-08-19T09:12:58.883Z,11.77
2018-08-19T09:15:27.450Z,11.87
2018-08-19T09:17:56.021Z,11.63
2018-08-19T09:20:24.590Z,13.53
2018-08-19T09:22:53.168Z,16.10
2018-08-19T09:25:21.703Z,12.60
2018-08-19T09:27:50.263Z,13.30
2018-08-19T09:30:32.422Z,12.93
2018-08-19T09:33:01.802Z,13.43
2018-08-19T09:35:31.672Z,11.70
2018-08-19T09:38:05.597Z,13.57
2018-08-19T09:40:35.134Z,12.03
2018-08-19T09:43:03.671Z,9.80
2018-08-19T09:45:32.420Z,11.67
2018-08-19T09:48:01.566Z,11.00
2018-08-19T09:50:30.068Z,11.33
2018-08-19T09:52:58.615Z,12.43
2018-08-19T09:55:32.420Z,10.90
2018-08-19T09:58:01.457Z,11.90
2018-08-19T10:00:35.264Z,9.20
2018-08-19T10:03:03.880Z,12.77
2018-08-19T10:05:34.743Z,9.83
2018-08-19T10:08:03.320Z,9.17
2018-08-19T10:10:34.961Z,10.13
2018-08-19T10:13:03.862Z,11.60
2018-08-19T10:15:32.632Z,12.17
2018-08-19T10:18:01.423Z,12.90
2018-08-19T10:20:29.979Z,13.27
2018-08-19T10:22:59.116Z,12.07
2018-08-19T10:25:27.676Z,11.20
2018-08-19T10:27:57.016Z,11.03
2018-08-19T10:30:25.556Z,13.60
2018-08-19T10:33:04.532Z,13.30
2018-08-19T10:35:33.835Z,12.70
2018-08-19T10:38:02.962Z,11.40
2018-08-19T10:40:31.514Z,14.37
2018-08-19T10:43:02.651Z,12.83
2018-08-19T10:45:31.234Z,12.03
2018-08-19T10:47:59.855Z,10.33
2018-08-19T10:50:29.804Z,12.17
2018-08-19T10:52:58.331Z,9.83
2018-08-19T10:55:27.406Z,9.87
2018-08-19T10:57:55.970Z,9.90
2018-08-19T11:00:30.503Z,11.17
2018-08-19T11:03:04.588Z,8.90
2018-08-19T11:05:35.521Z,10.83
2018-08-19T11:08:04.112Z,9.10
2018-08-19T11:10:32.715Z,13.27
2018-08-19T11:13:01.293Z,10.47
2018-08-19T11:15:34.550Z,10.70
2018-08-19T11:18:18.565Z,11.13
2018-08-19T11:20:50.343Z,11.33
2018-08-19T11:23:21.523Z,10.63
2018-08-19T11:25:51.282Z,11.03
2018-08-19T11:28:29.136Z,9.50
2018-08-19T11:30:57.718Z,10.83
2018-08-19T11:33:40.246Z,9.77
2018-08-19T11:36:09.347Z,10.83
2018-08-19T11:38:38.459Z,9.97
2018-08-19T11:41:08.482Z,9.70
2018-08-19T11:43:39.552Z,9.17
2018-08-19T11:46:08.495Z,10.27
2018-08-19T11:48:37.820Z,9.80
2018-08-19T11:51:06.417Z,10.27
2018-08-19T11:53:35.365Z,9.60
2018-08-19T11:56:03.954Z,8.90
2018-08-19T11:58:46.060Z,9.60
2018-08-19T12:01:15.979Z,9.90
2018-08-19T12:03:56.590Z,9.53
2018-08-19T12:06:26.371Z,9.77
2018-08-19T12:08:56.595Z,9.47
2018-08-19T12:11:32.180Z,9.33
2018-08-19T12:14:04.251Z,8.63
2018-08-19T12:16:44.891Z,8.50
2018-08-19T12:19:19.682Z,8.33
2018-08-19T12:21:53.911Z,8.10
2018-08-19T12:24:41.115Z,8.23
2018-08-19T12:27:10.942Z,7.73
2018-08-19T12:29:40.633Z,8.07
2018-08-19T12:32:13.902Z,7.80
2018-08-19T12:34:45.428Z,9.13
2018-08-19T12:37:14.996Z,7.63
2018-08-19T12:39:43.647Z,7.97
2018-08-19T12:42:12.288Z,7.60
2018-08-19T12:44:40.947Z,8.57
2018-08-19T12:47:17.697Z,7.27
2018-08-19T12:49:49.078Z,7.47
2018-08-19T12:52:19.651Z,7.27
2018-08-19T12:55:04.322Z,8.20
2018-08-19T12:57:33.167Z,7.50
2018-08-19T13:00:06.962Z,7.50
2018-08-19T13:02:44.027Z,7.80
2018-08-19T13:05:13.406Z,7.50
2018-08-19T13:07:41.999Z,7.30
2018-08-19T13:10:10.576Z,7.63
2018-08-19T13:12:58.470Z,7.60
2018-08-19T13:15:30.744Z,8.17
2018-08-19T13:17:59.397Z,7.80
2018-08-19T13:20:27.991Z,8.33
2018-08-19T13:23:03.008Z,7.53
2018-08-19T13:25:31.919Z,7.07
2018-08-19T13:28:00.508Z,7.50
2018-08-19T13:30:29.084Z,7.80
2018-08-19T13:32:57.659Z,7.80
2018-08-19T13:35:26.243Z,8.17
2018-08-19T13:37:54.813Z,7.43
2018-08-19T13:40:23.343Z,7.80
2018-08-19T13:42:52.080Z,8.30
2018-08-19T13:45:21.984Z,7.40
2018-08-19T13:47:51.850Z,7.83
2018-08-19T13:50:50.965Z,7.80
2018-08-19T13:53:19.523Z,9.27
2018-08-19T13:55:48.106Z,7.37
2018-08-19T13:58:16.647Z,7.77
2018-08-19T14:00:45.179Z,7.13
2018-08-19T14:03:13.756Z,6.97
2018-08-19T14:05:42.327Z,7.23
2018-08-19T14:08:10.892Z,7.03
2018-08-19T14:10:39.451Z,6.83
2018-08-19T14:13:07.998Z,6.90
2018-08-19T14:15:36.530Z,6.90
2018-08-19T14:18:05.119Z,6.57
2018-08-19T14:20:33.685Z,6.67
2018-08-19T14:23:02.204Z,6.80
2018-08-19T14:25:30.804Z,6.93
2018-08-19T14:27:59.356Z,7.60
2018-08-19T14:30:27.990Z,6.63
2018-08-19T14:32:56.575Z,7.40
2018-08-19T14:35:25.165Z,7.67
2018-08-19T14:37:53.705Z,7.17
2018-08-19T14:40:22.414Z,6.63
2018-08-19T14:42:50.887Z,7.00
2018-08-19T14:45:19.450Z,8.23
2018-08-19T14:47:48.033Z,7.30
2018-08-19T14:50:18.483Z,7.43
2018-08-19T14:52:47.023Z,7.57
2018-08-19T14:55:15.616Z,7.90
2018-08-19T14:57:44.197Z,7.80
2018-08-19T15:00:15.335Z,7.37
2018-08-19T15:02:43.972Z,8.03
2018-08-19T15:05:18.026Z,8.13
2018-08-19T15:07:46.885Z,7.40
2018-08-19T15:10:20.160Z,8.10
2018-08-19T15:12:48.740Z,8.03
2018-08-19T15:15:17.360Z,7.70
2018-08-19T15:17:58.033Z,7.37
2018-08-19T15:20:31.827Z,7.53
2018-08-19T15:23:31.221Z,7.17
2018-08-19T15:25:59.774Z,7.40
2018-08-19T15:28:28.347Z,7.63
2018-08-19T15:30:56.886Z,7.17
2018-08-19T15:33:25.448Z,8.07
2018-08-19T15:35:54.034Z,7.70
2018-08-19T15:38:22.562Z,7.43
2018-08-19T15:40:51.100Z,7.90
2018-08-19T15:43:19.680Z,7.87
2018-08-19T15:45:48.395Z,7.43
2018-08-19T15:48:17.003Z,7.43
2018-08-19T15:50:45.945Z,7.20
2018-08-19T15:53:14.549Z,7.33
2018-08-19T15:55:43.066Z,7.97
2018-08-19T15:58:11.668Z,7.17
2018-08-19T16:00:41.406Z,7.13
2018-08-19T16:03:11.323Z,6.90
2018-08-19T16:05:39.907Z,7.20
2018-08-19T16:08:08.721Z,7.43
2018-08-19T16:10:37.322Z,6.93
2018-08-19T16:13:10.287Z,6.80
2018-08-19T16:15:38.910Z,7.17
2018-08-19T16:18:07.935Z,6.80
2018-08-19T16:20:36.567Z,6.93
2018-08-19T16:23:05.142Z,6.70
2018-08-19T16:25:33.743Z,7.00
2018-08-19T16:28:02.363Z,6.97
2018-08-19T16:30:30.944Z,6.83
2018-08-19T16:32:59.517Z,7.07
2018-08-19T16:35:28.067Z,6.73
2018-08-19T16:37:56.632Z,7.30
2018-08-19T16:40:25.160Z,6.97
2018-08-19T16:42:53.747Z,6.97
2018-08-19T16:45:22.277Z,6.73
2018-08-19T16:47:50.825Z,7.10
2018-08-19T16:50:19.476Z,6.40
2018-08-19T16:52:48.007Z,5.80
2018-08-19T16:55:16.576Z,6.37
2018-08-19T16:57:45.119Z,5.83
2018-08-19T17:00:13.720Z,6.27
2018-08-19T17:02:42.301Z,5.90
2018-08-19T17:05:32.440Z,6.00
2018-08-19T17:08:01.032Z,5.93
2018-08-19T17:10:30.178Z,5.83
2018-08-19T17:12:59.113Z,6.17
2018-08-19T17:15:28.122Z,5.97
2018-08-19T17:17:56.768Z,6.40
2018-08-19T17:20:25.331Z,6.17
2018-08-19T17:22:53.904Z,6.87
2018-08-19T17:25:22.443Z,6.17
2018-08-19T17:27:51.035Z,6.27
2018-08-19T17:30:19.601Z,6.50
2018-08-19T17:32:54.406Z,5.70
2018-08-19T17:35:22.890Z,6.07
2018-08-19T17:37:51.883Z,6.37
2018-08-19T17:40:20.416Z,5.47
2018-08-19T17:42:48.940Z,5.80
2018-08-19T17:45:17.532Z,5.47
2018-08-19T17:47:46.416Z,6.00
2018-08-19T17:50:19.170Z,6.50
2018-08-19T17:52:47.743Z,5.67
2018-08-19T17:55:16.306Z,5.47
2018-08-19T17:57:44.867Z,6.03
2018-08-19T18:00:13.410Z,6.30
2018-08-19T18:02:41.963Z,5.10
2018-08-19T18:05:10.541Z,4.73
2018-08-19T18:07:39.105Z,5.00
2018-08-19T18:10:12.263Z,4.93
2018-08-19T18:12:40.830Z,5.80
2018-08-19T18:15:10.155Z,5.50
2018-08-19T18:17:39.247Z,5.13
2018-08-19T18:20:23.752Z,5.20
2018-08-19T18:22:53.375Z,5.10
2018-08-19T18:25:21.989Z,5.33
2018-08-19T18:27:50.522Z,5.13
2018-08-19T18:30:23.330Z,5.93
2018-08-19T18:32:53.647Z,5.07
2018-08-19T18:35:23.446Z,4.73
2018-08-19T18:37:52.032Z,5.20
2018-08-19T18:40:25.856Z,5.30
2018-08-19T18:42:54.415Z,4.67
2018-08-19T18:45:22.995Z,5.10
2018-08-19T18:47:56.780Z,5.27
2018-08-19T18:50:26.039Z,6.60
2018-08-19T18:52:54.927Z,4.13
2018-08-19T18:55:23.628Z,4.93
2018-08-19T18:57:53.359Z,4.63
2018-08-19T19:00:24.009Z,5.57
2018-08-19T19:02:54.255Z,5.40
2018-08-19T19:05:38.120Z,4.20
2018-08-19T19:08:10.232Z,4.63
2018-08-19T19:10:39.243Z,4.80
2018-08-19T19:13:07.906Z,5.10
2018-08-19T19:15:39.331Z,5.00
2018-08-19T19:18:10.067Z,4.93
2018-08-19T19:20:46.276Z,4.60
2018-08-19T19:23:14.885Z,6.87
2018-08-19T19:25:43.442Z,4.93
2018-08-19T19:28:12.468Z,4.50
2018-08-19T19:30:41.017Z,4.63
2018-08-19T19:33:13.759Z,4.80
2018-08-19T19:35:42.473Z,4.67
2018-08-19T19:38:11.107Z,5.00
2018-08-19T19:40:39.707Z,4.50
2018-08-19T19:43:08.287Z,4.63
2018-08-19T19:45:45.021Z,4.70
2018-08-19T19:48:13.552Z,4.63
2018-08-19T19:50:42.199Z,4.47
2018-08-19T19:53:10.752Z,5.77
2018-08-19T19:55:39.332Z,5.80
2018-08-19T19:58:07.880Z,7.13
2018-08-19T20:00:50.902Z,7.37
2018-08-19T20:03:19.975Z,5.53
2018-08-19T20:05:48.545Z,5.00
2018-08-19T20:08:17.144Z,4.47
2018-08-19T20:10:45.719Z,5.43
2018-08-19T20:13:14.270Z,8.60
2018-08-19T20:15:42.831Z,6.93
2018-08-19T20:18:11.368Z,7.07
2018-08-19T20:20:39.899Z,4.70
2018-08-19T20:23:14.802Z,4.77
2018-08-19T20:25:43.546Z,7.93
2018-08-19T20:28:12.124Z,4.80
2018-08-19T20:30:41.039Z,5.43
2018-08-19T20:33:17.049Z,5.30
2018-08-19T20:35:45.675Z,5.20
2018-08-19T20:38:14.248Z,5.37
2018-08-19T20:40:43.810Z,5.80
2018-08-19T20:43:17.580Z,6.00
2018-08-19T20:45:46.688Z,5.90
2018-08-19T20:48:17.657Z,5.00
2018-08-19T20:50:46.747Z,5.13
2018-08-19T20:53:15.374Z,5.83
2018-08-19T20:55:43.933Z,6.10
2018-08-19T20:58:12.553Z,5.33
2018-08-19T21:00:41.132Z,4.93
2018-08-19T21:03:10.271Z,5.73
2018-08-19T21:05:39.175Z,5.10
2018-08-19T21:08:11.645Z,6.30
2018-08-19T21:10:41.350Z,5.20
2018-08-19T21:13:11.460Z,4.97
2018-08-19T21:15:41.684Z,5.87
2018-08-19T21:18:10.622Z,6.37
2018-08-19T21:20:39.170Z,5.53
2018-08-19T21:23:07.952Z,5.93
2018-08-19T21:25:46.754Z,6.77
2018-08-19T21:28:21.818Z,6.30
2018-08-19T21:30:50.779Z,5.43
2018-08-19T21:33:19.511Z,8.97
2018-08-19T21:35:49.924Z,5.87
2018-08-19T21:38:18.578Z,5.93
2018-08-19T21:40:47.149Z,6.17
2018-08-19T21:43:15.703Z,6.45
2018-08-19T21:45:44.303Z,6.87
2018-08-19T21:48:14.899Z,7.80
2018-08-19T21:50:43.570Z,6.07
2018-08-19T21:53:13.331Z,5.90
2018-08-19T21:55:43.193Z,6.00
2018-08-19T21:58:11.755Z,6.57
2018-08-19T22:00:41.587Z,6.63
2018-08-19T22:03:17.570Z,6.23
2018-08-19T22:05:46.482Z,6.67
2018-08-19T22:08:15.060Z,7.23
2018-08-19T22:10:44.863Z,6.80
2018-08-19T22:13:13.539Z,6.83
2018-08-19T22:15:43.229Z,6.33
2018-08-19T22:18:15.011Z,6.03
2018-08-19T22:20:54.730Z,6.23
2018-08-19T22:23:29.750Z,7.10
2018-08-19T22:25:58.383Z,7.40
2018-08-19T22:28:26.919Z,6.40
2018-08-19T22:30:55.455Z,6.37
2018-08-19T22:33:24.022Z,6.73
2018-08-19T22:35:52.583Z,6.53
2018-08-19T22:38:23.059Z,7.57
2018-08-19T22:40:51.646Z,7.87
2018-08-19T22:43:20.632Z,6.50
2018-08-19T22:45:49.525Z,7.50
2018-08-19T22:48:33.818Z,6.60
2018-08-19T22:51:02.378Z,6.33
2018-08-19T22:53:31.099Z,6.90
2018-08-19T22:55:59.659Z,6.87
2018-08-19T22:58:28.220Z,7.50
2018-08-19T23:00:56.769Z,7.13
2018-08-19T23:03:25.427Z,6.93
2018-08-19T23:05:54.002Z,7.07
2018-08-19T23:08:26.507Z,6.77
2018-08-19T23:10:56.409Z,6.93
2018-08-19T23:14:35.450Z,6.80
2018-08-19T23:17:07.387Z,7.40
2018-08-19T23:19:35.939Z,8.40
2018-08-19T23:22:04.552Z,7.10
2018-08-19T23:24:33.095Z,6.93
2018-08-19T23:27:01.677Z,6.67
2018-08-19T23:29:30.259Z,6.97
2018-08-19T23:31:58.838Z,7.27
2018-08-19T23:34:27.411Z,6.67
2018-08-19T23:36:56.015Z,7.83
2018-08-19T23:39:24.579Z,6.73
2018-08-19T23:41:53.135Z,7.20
2018-08-19T23:44:21.692Z,6.77
2018-08-19T23:46:50.331Z,12.53
2018-08-19T23:49:18.905Z,6.87
2018-08-19T23:51:47.514Z,6.97
2018-08-19T23:54:16.063Z,5.90
2018-08-19T23:56:44.715Z,6.10
2018-08-19T23:59:15.776Z,6.53
